sensor_id;sensor_type;location;lat;lon;timestamp;pressure;altitude;pressure_sealevel;temperature;humidity
48926;BME280;39838;59.938;30.642;2023-08-24T00:00:49;100589.28;;;12.10;78.88
48926;BME280;39838;59.938;30.642;2023-08-24T00:03:17;100592.75;;;12.09;78.90
48926;BME280;39838;59.938;30.642;2023-08-24T00:05:44;100597.09;;;12.08;79.30
48926;BME280;39838;59.938;30.642;2023-08-24T00:08:11;100596.25;;;12.08;79.22
48926;BME280;39838;59.938;30.642;2023-08-24T00:10:39;100595.38;;;12.09;79.44
48926;BME280;39838;59.938;30.642;2023-08-24T00:13:10;100596.25;;;12.08;79.46
48926;BME280;39838;59.938;30.642;2023-08-24T00:15:39;100597.97;;;12.07;79.65
48926;BME280;39838;59.938;30.642;2023-08-24T00:18:07;100600.56;;;12.06;79.73
48926;BME280;39838;59.938;30.642;2023-08-24T00:20:34;100596.25;;;12.08;79.75
48926;BME280;39838;59.938;30.642;2023-08-24T00:23:03;100580.63;;;11.98;79.74
48926;BME280;39838;59.938;30.642;2023-08-24T00:25:30;100591.03;;;12.08;79.72
48926;BME280;39838;59.938;30.642;2023-08-24T00:27:58;100596.22;;;12.09;79.97
48926;BME280;39838;59.938;30.642;2023-08-24T00:30:25;100590.16;;;12.10;79.99
48926;BME280;39838;59.938;30.642;2023-08-24T00:32:54;100587.53;;;12.10;80.07
48926;BME280;39838;59.938;30.642;2023-08-24T00:35:21;100591.00;;;12.12;80.18
48926;BME280;39838;59.938;30.642;2023-08-24T00:37:48;100591.00;;;12.14;80.36
48926;BME280;39838;59.938;30.642;2023-08-24T00:40:16;100592.75;;;12.15;80.27
48926;BME280;39838;59.938;30.642;2023-08-24T00:42:45;100591.84;;;12.17;80.48
48926;BME280;39838;59.938;30.642;2023-08-24T00:45:13;100581.44;;;12.17;80.19
48926;BME280;39838;59.938;30.642;2023-08-24T00:47:42;100585.78;;;12.17;80.28
48926;BME280;39838;59.938;30.642;2023-08-24T00:50:13;100584.91;;;12.19;80.32
48926;BME280;39838;59.938;30.642;2023-08-24T00:52:41;100584.03;;;12.16;80.25
48926;BME280;39838;59.938;30.642;2023-08-24T00:55:09;100590.97;;;12.18;80.36
48926;BME280;39838;59.938;30.642;2023-08-24T00:57:37;100601.41;;;12.17;80.27
48926;BME280;39838;59.938;30.642;2023-08-24T01:00:07;100605.75;;;12.16;80.56
48926;BME280;39838;59.938;30.642;2023-08-24T01:02:36;100602.25;;;12.17;80.60
48926;BME280;39838;59.938;30.642;2023-08-24T01:05:04;100600.53;;;12.18;80.53
48926;BME280;39838;59.938;30.642;2023-08-24T01:07:34;100595.34;;;12.13;80.91
48926;BME280;39838;59.938;30.642;2023-08-24T01:10:05;100585.81;;;12.11;80.54
48926;BME280;39838;59.938;30.642;2023-08-24T01:12:42;100580.63;;;12.08;80.33
48926;BME280;39838;59.938;30.642;2023-08-24T01:15:18;100584.03;;;12.16;80.32
48926;BME280;39838;59.938;30.642;2023-08-24T01:17:50;100597.94;;;12.19;80.05
48926;BME280;39838;59.938;30.642;2023-08-24T01:20:20;100590.97;;;12.20;80.10
48926;BME280;39838;59.938;30.642;2023-08-24T01:22:54;100589.25;;;12.17;80.27
48926;BME280;39838;59.938;30.642;2023-08-24T01:25:32;100591.84;;;12.16;80.49
48926;BME280;39838;59.938;30.642;2023-08-24T01:28:03;100597.91;;;12.21;80.22
48926;BME280;39838;59.938;30.642;2023-08-24T01:30:34;100606.59;;;12.20;80.40
48926;BME280;39838;59.938;30.642;2023-08-24T01:33:03;100606.59;;;12.20;80.45
48926;BME280;39838;59.938;30.642;2023-08-24T01:35:31;100584.06;;;12.11;80.37
48926;BME280;39838;59.938;30.642;2023-08-24T01:37:58;100603.97;;;12.24;80.31
48926;BME280;39838;59.938;30.642;2023-08-24T01:40:39;100597.03;;;12.26;80.26
48926;BME280;39838;59.938;30.642;2023-08-24T01:43:10;100595.28;;;12.27;80.25
48926;BME280;39838;59.938;30.642;2023-08-24T01:45:41;100588.38;;;12.20;80.19
48926;BME280;39838;59.938;30.642;2023-08-24T01:48:11;100599.66;;;12.22;80.13
48926;BME280;39838;59.938;30.642;2023-08-24T01:50:40;100591.81;;;12.19;80.28
48926;BME280;39838;59.938;30.642;2023-08-24T01:53:08;100593.56;;;12.18;80.66
48926;BME280;39838;59.938;30.642;2023-08-24T01:55:36;100594.44;;;12.19;80.94
48926;BME280;39838;59.938;30.642;2023-08-24T01:58:03;100600.53;;;12.21;80.96
48926;BME280;39838;59.938;30.642;2023-08-24T02:00:32;100597.03;;;12.23;80.90
48926;BME280;39838;59.938;30.642;2023-08-24T02:03:00;100598.72;;;12.29;81.01
48926;BME280;39838;59.938;30.642;2023-08-24T02:05:27;100598.69;;;12.32;80.81
48926;BME280;39838;59.938;30.642;2023-08-24T02:07:55;100596.09;;;12.37;80.84
48926;BME280;39838;59.938;30.642;2023-08-24T02:10:23;100601.28;;;12.40;80.81
48926;BME280;39838;59.938;30.642;2023-08-24T02:12:50;100609.06;;;12.43;80.77
48926;BME280;39838;59.938;30.642;2023-08-24T02:15:17;100616.00;;;12.47;80.64
48926;BME280;39838;59.938;30.642;2023-08-24T02:17:46;100595.19;;;12.38;80.74
48926;BME280;39838;59.938;30.642;2023-08-24T02:20:14;100616.81;;;12.55;80.56
48926;BME280;39838;59.938;30.642;2023-08-24T02:22:41;100609.00;;;12.56;80.72
48926;BME280;39838;59.938;30.642;2023-08-24T02:25:09;100611.59;;;12.56;80.63
48926;BME280;39838;59.938;30.642;2023-08-24T02:27:37;100609.88;;;12.55;80.65
48926;BME280;39838;59.938;30.642;2023-08-24T02:30:05;100617.66;;;12.57;80.83
48926;BME280;39838;59.938;30.642;2023-08-24T02:32:33;100613.31;;;12.57;80.79
48926;BME280;39838;59.938;30.642;2023-08-24T02:35:03;100608.97;;;12.60;80.39
48926;BME280;39838;59.938;30.642;2023-08-24T02:37:30;100613.31;;;12.61;80.50
48926;BME280;39838;59.938;30.642;2023-08-24T02:39:58;100616.78;;;12.63;80.68
48926;BME280;39838;59.938;30.642;2023-08-24T02:42:25;100620.25;;;12.62;80.88
48926;BME280;39838;59.938;30.642;2023-08-24T02:44:52;100615.91;;;12.62;80.98
48926;BME280;39838;59.938;30.642;2023-08-24T02:47:20;100608.97;;;12.61;80.80
48926;BME280;39838;59.938;30.642;2023-08-24T02:49:47;100609.88;;;12.52;81.16
48926;BME280;39838;59.938;30.642;2023-08-24T02:52:16;100614.28;;;12.43;81.62
48926;BME280;39838;59.938;30.642;2023-08-24T02:54:43;100609.97;;;12.40;82.04
48926;BME280;39838;59.938;30.642;2023-08-24T02:57:10;100602.16;;;12.37;81.96
48926;BME280;39838;59.938;30.642;2023-08-24T02:59:38;100604.75;;;12.37;82.17
48926;BME280;39838;59.938;30.642;2023-08-24T03:02:05;100609.97;;;12.40;82.45
48926;BME280;39838;59.938;30.642;2023-08-24T03:04:33;100612.59;;;12.36;82.64
48926;BME280;39838;59.938;30.642;2023-08-24T03:07:00;100608.25;;;12.35;82.85
48926;BME280;39838;59.938;30.642;2023-08-24T03:09:29;100607.41;;;12.34;83.00
48926;BME280;39838;59.938;30.642;2023-08-24T03:11:57;100609.97;;;12.37;83.15
48926;BME280;39838;59.938;30.642;2023-08-24T03:14:24;100602.97;;;12.45;83.08
48926;BME280;39838;59.938;30.642;2023-08-24T03:16:52;100600.38;;;12.48;82.61
48926;BME280;39838;59.938;30.642;2023-08-24T03:19:19;100598.63;;;12.46;82.61
48926;BME280;39838;59.938;30.642;2023-08-24T03:21:46;100608.19;;;12.44;83.03
48926;BME280;39838;59.938;30.642;2023-08-24T03:24:14;100602.13;;;12.42;82.93
48926;BME280;39838;59.938;30.642;2023-08-24T03:26:42;100612.53;;;12.45;83.31
48926;BME280;39838;59.938;30.642;2023-08-24T03:29:10;100611.66;;;12.47;83.03
48926;BME280;39838;59.938;30.642;2023-08-24T03:31:37;100607.25;;;12.52;82.81
48926;BME280;39838;59.938;30.642;2023-08-24T03:34:04;100608.97;;;12.58;82.73
48926;BME280;39838;59.938;30.642;2023-08-24T03:36:32;100613.31;;;12.61;82.91
48926;BME280;39838;59.938;30.642;2023-08-24T03:38:59;100616.78;;;12.63;82.69
48926;BME280;39838;59.938;30.642;2023-08-24T03:41:26;100621.13;;;12.62;82.99
48926;BME280;39838;59.938;30.642;2023-08-24T03:43:55;100624.59;;;12.61;82.98
48926;BME280;39838;59.938;30.642;2023-08-24T03:46:22;100611.56;;;12.61;82.85
48926;BME280;39838;59.938;30.642;2023-08-24T03:48:50;100604.63;;;12.58;82.71
48926;BME280;39838;59.938;30.642;2023-08-24T03:51:17;100627.16;;;12.69;82.50
48926;BME280;39838;59.938;30.642;2023-08-24T03:53:45;100628.84;;;12.73;82.49
48926;BME280;39838;59.938;30.642;2023-08-24T03:56:12;100634.91;;;12.81;82.13
48926;BME280;39838;59.938;30.642;2023-08-24T03:58:39;100635.69;;;12.91;81.75
48926;BME280;39838;59.938;30.642;2023-08-24T04:01:11;100640.00;;;12.96;81.26
48926;BME280;39838;59.938;30.642;2023-08-24T04:03:39;100637.34;;;12.99;80.59
48926;BME280;39838;59.938;30.642;2023-08-24T04:06:06;100629.53;;;13.01;80.26
48926;BME280;39838;59.938;30.642;2023-08-24T04:08:34;100638.19;;;13.04;80.05
48926;BME280;39838;59.938;30.642;2023-08-24T04:11:01;100634.69;;;13.05;79.48
48926;BME280;39838;59.938;30.642;2023-08-24T04:13:29;100633.81;;;13.06;79.05
48926;BME280;39838;59.938;30.642;2023-08-24T04:15:56;100623.41;;;13.05;78.79
48926;BME280;39838;59.938;30.642;2023-08-24T04:18:25;100626.94;;;13.01;78.74
48926;BME280;39838;59.938;30.642;2023-08-24T04:20:52;100633.88;;;12.99;78.87
48926;BME280;39838;59.938;30.642;2023-08-24T04:23:24;100636.53;;;12.96;78.82
48926;BME280;39838;59.938;30.642;2023-08-24T04:25:52;100637.44;;;12.90;78.89
48926;BME280;39838;59.938;30.642;2023-08-24T04:28:20;100636.59;;;12.88;78.96
48926;BME280;39838;59.938;30.642;2023-08-24T04:30:50;100634.88;;;12.84;78.97
48926;BME280;39838;59.938;30.642;2023-08-24T04:33:17;100629.69;;;12.78;79.00
48926;BME280;39838;59.938;30.642;2023-08-24T04:35:47;100629.72;;;12.75;79.09
48926;BME280;39838;59.938;30.642;2023-08-24T04:38:15;100626.25;;;12.74;79.32
48926;BME280;39838;59.938;30.642;2023-08-24T04:40:49;100624.47;;;12.81;79.31
48926;BME280;39838;59.938;30.642;2023-08-24T04:43:17;100632.22;;;12.90;79.23
48926;BME280;39838;59.938;30.642;2023-08-24T04:45:45;100627.75;;;13.06;78.42
48926;BME280;39838;59.938;30.642;2023-08-24T04:48:12;100635.44;;;13.24;77.49
48926;BME280;39838;59.938;30.642;2023-08-24T04:50:43;100627.47;;;13.43;77.08
48926;BME280;39838;59.938;30.642;2023-08-24T04:53:12;100625.53;;;13.63;76.94
48926;BME280;39838;59.938;30.642;2023-08-24T04:55:40;100624.44;;;13.81;76.17
48926;BME280;39838;59.938;30.642;2023-08-24T04:58:08;100625.16;;;13.93;75.04
48926;BME280;39838;59.938;30.642;2023-08-24T05:00:35;100629.50;;;13.96;74.67
48926;BME280;39838;59.938;30.642;2023-08-24T05:03:04;100634.59;;;14.05;73.60
48926;BME280;39838;59.938;30.642;2023-08-24T05:05:32;100639.72;;;14.16;73.06
48926;BME280;39838;59.938;30.642;2023-08-24T05:08:00;100638.75;;;14.23;72.27
48926;BME280;39838;59.938;30.642;2023-08-24T05:10:32;100635.09;;;14.35;70.78
48926;BME280;39838;59.938;30.642;2023-08-24T05:13:00;100639.31;;;14.46;70.35
48926;BME280;39838;59.938;30.642;2023-08-24T05:15:28;100627.97;;;14.51;69.80
48926;BME280;39838;59.938;30.642;2023-08-24T05:17:55;100635.50;;;14.70;69.50
48926;BME280;39838;59.938;30.642;2023-08-24T05:20:25;100637.94;;;14.81;69.42
48926;BME280;39838;59.938;30.642;2023-08-24T05:22:53;100628.31;;;14.85;68.42
48926;BME280;39838;59.938;30.642;2023-08-24T05:25:21;100630.06;;;14.83;68.38
48926;BME280;39838;59.938;30.642;2023-08-24T05:27:50;100637.09;;;14.81;68.07
48926;BME280;39838;59.938;30.642;2023-08-24T05:30:17;100636.44;;;14.66;68.04
48926;BME280;39838;59.938;30.642;2023-08-24T05:32:45;100631.34;;;14.56;68.44
48926;BME280;39838;59.938;30.642;2023-08-24T05:35:12;100639.09;;;14.63;68.68
48926;BME280;39838;59.938;30.642;2023-08-24T05:37:39;100627.72;;;14.66;67.87
48926;BME280;39838;59.938;30.642;2023-08-24T05:40:07;100630.28;;;14.70;67.87
48926;BME280;39838;59.938;30.642;2023-08-24T05:42:35;100628.59;;;14.66;67.86
48926;BME280;39838;59.938;30.642;2023-08-24T05:45:06;100628.59;;;14.66;68.21
48926;BME280;39838;59.938;30.642;2023-08-24T05:47:33;100625.06;;;14.70;68.13
48926;BME280;39838;59.938;30.642;2023-08-24T05:50:00;100628.50;;;14.72;67.99
48926;BME280;39838;59.938;30.642;2023-08-24T05:52:29;100626.72;;;14.74;68.71
48926;BME280;39838;59.938;30.642;2023-08-24T05:54:57;100623.16;;;14.80;68.20
48926;BME280;39838;59.938;30.642;2023-08-24T05:57:24;100619.63;;;14.83;68.21
48926;BME280;39838;59.938;30.642;2023-08-24T05:59:51;100618.78;;;14.81;68.78
48926;BME280;39838;59.938;30.642;2023-08-24T06:02:20;100617.06;;;14.80;68.41
48926;BME280;39838;59.938;30.642;2023-08-24T06:04:47;100620.59;;;14.75;68.37
48926;BME280;39838;59.938;30.642;2023-08-24T06:07:16;100617.97;;;14.75;68.63
48926;BME280;39838;59.938;30.642;2023-08-24T06:09:43;100611.94;;;14.72;69.04
48926;BME280;39838;59.938;30.642;2023-08-24T06:12:11;100618.94;;;14.71;68.81
48926;BME280;39838;59.938;30.642;2023-08-24T06:14:38;100593.84;;;14.58;68.59
48926;BME280;39838;59.938;30.642;2023-08-24T06:17:05;100621.53;;;14.71;69.02
48926;BME280;39838;59.938;30.642;2023-08-24T06:19:34;100611.03;;;14.74;69.40
48926;BME280;39838;59.938;30.642;2023-08-24T06:22:01;100612.69;;;14.80;69.32
48926;BME280;39838;59.938;30.642;2023-08-24T06:24:29;100610.81;;;14.88;69.08
48926;BME280;39838;59.938;30.642;2023-08-24T06:26:56;100608.19;;;14.88;68.91
48926;BME280;39838;59.938;30.642;2023-08-24T06:29:24;100607.25;;;14.94;69.23
48926;BME280;39838;59.938;30.642;2023-08-24T06:31:51;100609.72;;;15.01;69.23
48926;BME280;39838;59.938;30.642;2023-08-24T06:34:18;100607.84;;;15.10;69.24
48926;BME280;39838;59.938;30.642;2023-08-24T06:36:47;100618.31;;;15.11;69.20
48926;BME280;39838;59.938;30.642;2023-08-24T06:39:17;100614.66;;;15.20;69.56
48926;BME280;39838;59.938;30.642;2023-08-24T06:41:45;100615.34;;;15.29;69.21
48926;BME280;39838;59.938;30.642;2023-08-24T06:44:12;100609.94;;;15.40;69.03
48926;BME280;39838;59.938;30.642;2023-08-24T06:46:40;100615.13;;;15.42;67.86
48926;BME280;39838;59.938;30.642;2023-08-24T06:49:07;100617.91;;;15.34;67.98
48926;BME280;39838;59.938;30.642;2023-08-24T06:51:34;100618.94;;;15.25;67.94
48926;BME280;39838;59.938;30.642;2023-08-24T06:54:03;100624.09;;;15.28;68.01
48926;BME280;39838;59.938;30.642;2023-08-24T06:56:30;100619.63;;;15.35;67.67
48926;BME280;39838;59.938;30.642;2023-08-24T06:58:57;100630.91;;;15.39;67.18
48926;BME280;39838;59.938;30.642;2023-08-24T07:01:25;100628.19;;;15.43;67.20
48926;BME280;39838;59.938;30.642;2023-08-24T07:03:52;100628.84;;;15.56;67.36
48926;BME280;39838;59.938;30.642;2023-08-24T07:06:20;100632.00;;;15.75;67.25
48926;BME280;39838;59.938;30.642;2023-08-24T07:08:47;100615.44;;;15.74;66.50
48926;BME280;39838;59.938;30.642;2023-08-24T07:11:16;100633.44;;;15.91;66.00
48926;BME280;39838;59.938;30.642;2023-08-24T07:13:44;100636.63;;;16.07;65.85
48926;BME280;39838;59.938;30.642;2023-08-24T07:16:11;100632.84;;;16.20;65.13
48926;BME280;39838;59.938;30.642;2023-08-24T07:18:39;100640.72;;;16.19;64.92
48926;BME280;39838;59.938;30.642;2023-08-24T07:21:06;100635.44;;;16.22;64.67
48926;BME280;39838;59.938;30.642;2023-08-24T07:23:33;100642.19;;;16.33;64.71
48926;BME280;39838;59.938;30.642;2023-08-24T07:26:01;100640.13;;;16.48;64.59
48926;BME280;39838;59.938;30.642;2023-08-24T07:28:30;100645.25;;;16.54;64.26
48926;BME280;39838;59.938;30.642;2023-08-24T07:30:57;100645.84;;;16.65;64.28
48926;BME280;39838;59.938;30.642;2023-08-24T07:33:24;100645.31;;;16.89;63.75
48926;BME280;39838;59.938;30.642;2023-08-24T07:35:52;100651.81;;;17.10;62.38
48926;BME280;39838;59.938;30.642;2023-08-24T07:38:19;100656.06;;;17.16;62.11
48926;BME280;39838;59.938;30.642;2023-08-24T07:40:47;100655.97;;;17.19;61.29
48926;BME280;39838;59.938;30.642;2023-08-24T07:43:14;100657.72;;;17.18;60.96
48926;BME280;39838;59.938;30.642;2023-08-24T07:45:43;100651.56;;;17.21;61.03
48926;BME280;39838;59.938;30.642;2023-08-24T07:48:10;100659.44;;;17.21;61.48
48926;BME280;39838;59.938;30.642;2023-08-24T07:50:37;100655.47;;;17.39;60.84
48926;BME280;39838;59.938;30.642;2023-08-24T07:53:05;100654.50;;;17.43;60.02
48926;BME280;39838;59.938;30.642;2023-08-24T07:55:32;100659.69;;;17.44;59.77
48926;BME280;39838;59.938;30.642;2023-08-24T07:57:59;100660.28;;;17.56;59.58
48926;BME280;39838;59.938;30.642;2023-08-24T08:00:25;100662.78;;;17.62;59.31
48926;BME280;39838;59.938;30.642;2023-08-24T08:02:54;100654.34;;;17.49;58.93
48926;BME280;39838;59.938;30.642;2023-08-24T08:05:22;100660.81;;;17.36;59.31
48926;BME280;39838;59.938;30.642;2023-08-24T08:07:49;100663.69;;;17.25;59.46
48926;BME280;39838;59.938;30.642;2023-08-24T08:10:16;100659.44;;;17.19;59.53
48926;BME280;39838;59.938;30.642;2023-08-24T08:12:46;100662.06;;;17.21;59.95
48926;BME280;39838;59.938;30.642;2023-08-24T08:15:13;100659.09;;;17.35;59.67
48926;BME280;39838;59.938;30.642;2023-08-24T08:17:40;100668.09;;;17.59;59.56
48926;BME280;39838;59.938;30.642;2023-08-24T08:20:10;100665.66;;;17.85;58.94
48926;BME280;39838;59.938;30.642;2023-08-24T08:22:38;100660.06;;;17.97;58.32
48926;BME280;39838;59.938;30.642;2023-08-24T08:25:06;100662.53;;;18.04;58.24
48926;BME280;39838;59.938;30.642;2023-08-24T08:27:33;100669.34;;;18.11;58.09
48926;BME280;39838;59.938;30.642;2023-08-24T08:30:01;100673.94;;;18.03;57.72
48926;BME280;39838;59.938;30.642;2023-08-24T08:32:32;100667.84;;;18.00;58.04
48926;BME280;39838;59.938;30.642;2023-08-24T08:35:00;100675.22;;;18.19;57.49
48926;BME280;39838;59.938;30.642;2023-08-24T08:37:32;100665.03;;;18.38;57.14
48926;BME280;39838;59.938;30.642;2023-08-24T08:40:00;100655.88;;;18.51;56.92
48926;BME280;39838;59.938;30.642;2023-08-24T08:42:30;100664.88;;;18.44;56.67
48926;BME280;39838;59.938;30.642;2023-08-24T08:44:59;100638.06;;;18.31;56.72
48926;BME280;39838;59.938;30.642;2023-08-24T08:47:30;100657.09;;;18.39;56.42
48926;BME280;39838;59.938;30.642;2023-08-24T08:49:58;100651.09;;;18.34;56.42
48926;BME280;39838;59.938;30.642;2023-08-24T08:52:32;100652.19;;;18.27;56.44
48926;BME280;39838;59.938;30.642;2023-08-24T08:55:00;100650.53;;;18.24;57.21
48926;BME280;39838;59.938;30.642;2023-08-24T08:57:32;100643.41;;;18.28;56.89
48926;BME280;39838;59.938;30.642;2023-08-24T09:00:00;100653.66;;;18.37;56.50
48926;BME280;39838;59.938;30.642;2023-08-24T09:02:33;100639.38;;;18.46;56.28
48926;BME280;39838;59.938;30.642;2023-08-24T09:05:01;100640.31;;;18.73;56.06
48926;BME280;39838;59.938;30.642;2023-08-24T09:07:30;100645.81;;;18.93;55.63
48926;BME280;39838;59.938;30.642;2023-08-24T09:09:59;100644.44;;;19.08;55.13
48926;BME280;39838;59.938;30.642;2023-08-24T09:12:31;100641.00;;;19.32;54.26
48926;BME280;39838;59.938;30.642;2023-08-24T09:14:58;100637.66;;;19.27;53.76
48926;BME280;39838;59.938;30.642;2023-08-24T09:17:26;100640.84;;;19.37;53.50
48926;BME280;39838;59.938;30.642;2023-08-24T09:19:58;100636.19;;;19.45;53.58
48926;BME280;39838;59.938;30.642;2023-08-24T09:22:25;100640.94;;;19.60;53.07
48926;BME280;39838;59.938;30.642;2023-08-24T09:24:53;100628.94;;;19.77;52.54
48926;BME280;39838;59.938;30.642;2023-08-24T09:27:22;100639.59;;;19.74;52.19
48926;BME280;39838;59.938;30.642;2023-08-24T09:29:50;100631.56;;;19.77;52.11
48926;BME280;39838;59.938;30.642;2023-08-24T09:32:22;100630.56;;;20.04;51.92
48926;BME280;39838;59.938;30.642;2023-08-24T09:34:49;100629.88;;;20.23;51.19
48926;BME280;39838;59.938;30.642;2023-08-24T09:37:17;100630.28;;;20.35;50.39
48926;BME280;39838;59.938;30.642;2023-08-24T09:39:46;100618.31;;;20.27;49.92
48926;BME280;39838;59.938;30.642;2023-08-24T09:42:13;100602.66;;;20.22;48.19
48926;BME280;39838;59.938;30.642;2023-08-24T09:44:44;100614.75;;;20.28;47.69
48926;BME280;39838;59.938;30.642;2023-08-24T09:47:12;100617.38;;;20.28;46.71
48926;BME280;39838;59.938;30.642;2023-08-24T09:49:39;100619.56;;;20.16;46.88
48926;BME280;39838;59.938;30.642;2023-08-24T09:52:07;100617.38;;;20.04;47.07
48926;BME280;39838;59.938;30.642;2023-08-24T09:54:37;100618.53;;;19.97;47.17
48926;BME280;39838;59.938;30.642;2023-08-24T09:57:06;100616.94;;;20.16;47.36
48926;BME280;39838;59.938;30.642;2023-08-24T09:59:35;100614.38;;;20.37;47.58
48926;BME280;39838;59.938;30.642;2023-08-24T10:02:12;100601.56;;;20.28;47.36
48926;BME280;39838;59.938;30.642;2023-08-24T10:04:42;100617.84;;;20.39;47.33
48926;BME280;39838;59.938;30.642;2023-08-24T10:07:11;100620.72;;;20.33;47.20
48926;BME280;39838;59.938;30.642;2023-08-24T10:09:47;100603.94;;;20.12;47.50
48926;BME280;39838;59.938;30.642;2023-08-24T10:12:18;100605.13;;;20.27;47.55
48926;BME280;39838;59.938;30.642;2023-08-24T10:14:53;100615.88;;;20.44;47.47
48926;BME280;39838;59.938;30.642;2023-08-24T10:17:26;100618.44;;;20.47;47.01
48926;BME280;39838;59.938;30.642;2023-08-24T10:19:54;100614.13;;;20.44;47.13
48926;BME280;39838;59.938;30.642;2023-08-24T10:22:23;100618.44;;;20.47;47.54
48926;BME280;39838;59.938;30.642;2023-08-24T10:24:51;100617.22;;;20.56;47.72
48926;BME280;39838;59.938;30.642;2023-08-24T10:27:21;100611.69;;;20.62;47.40
48926;BME280;39838;59.938;30.642;2023-08-24T10:29:49;100604.13;;;20.75;47.52
48926;BME280;39838;59.938;30.642;2023-08-24T10:32:17;100611.97;;;20.98;47.10
48926;BME280;39838;59.938;30.642;2023-08-24T10:34:46;100618.81;;;21.24;46.75
48926;BME280;39838;59.938;30.642;2023-08-24T10:37:14;100613.84;;;21.38;46.67
48926;BME280;39838;59.938;30.642;2023-08-24T10:39:44;100610.50;;;21.53;46.06
48926;BME280;39838;59.938;30.642;2023-08-24T10:42:13;100609.91;;;21.67;45.36
48926;BME280;39838;59.938;30.642;2023-08-24T10:44:45;100606.22;;;21.71;45.35
48926;BME280;39838;59.938;30.642;2023-08-24T10:47:14;100605.78;;;21.80;45.48
48926;BME280;39838;59.938;30.642;2023-08-24T10:49:42;100602.84;;;21.88;45.64
48926;BME280;39838;59.938;30.642;2023-08-24T10:52:21;100603.34;;;21.96;45.44
48926;BME280;39838;59.938;30.642;2023-08-24T10:54:50;100599.25;;;22.08;45.03
48926;BME280;39838;59.938;30.642;2023-08-24T10:57:19;100588.56;;;22.11;44.84
48926;BME280;39838;59.938;30.642;2023-08-24T10:59:58;100591.31;;;22.10;45.04
48926;BME280;39838;59.938;30.642;2023-08-24T11:02:26;100585.16;;;22.07;45.24
48926;BME280;39838;59.938;30.642;2023-08-24T11:05:04;100587.63;;;21.73;45.30
48926;BME280;39838;59.938;30.642;2023-08-24T11:07:33;100593.16;;;21.48;46.03
48926;BME280;39838;59.938;30.642;2023-08-24T11:10:11;100583.00;;;21.17;46.49
48926;BME280;39838;59.938;30.642;2023-08-24T11:15:49;100586.53;;;20.75;47.66
48926;BME280;39838;59.938;30.642;2023-08-24T11:18:22;100589.72;;;20.61;47.84
48926;BME280;39838;59.938;30.642;2023-08-24T11:20:52;100582.81;;;20.57;48.38
48926;BME280;39838;59.938;30.642;2023-08-24T11:23:23;100581.91;;;20.58;48.30
48926;BME280;39838;59.938;30.642;2023-08-24T11:25:51;100554.03;;;20.51;48.26
48926;BME280;39838;59.938;30.642;2023-08-24T11:28:22;100584.50;;;20.82;47.61
48926;BME280;39838;59.938;30.642;2023-08-24T11:30:51;100579.81;;;20.88;47.64
48926;BME280;39838;59.938;30.642;2023-08-24T11:33:27;100573.78;;;20.85;47.92
48926;BME280;39838;59.938;30.642;2023-08-24T11:35:55;100576.66;;;21.01;47.83
48926;BME280;39838;59.938;30.642;2023-08-24T11:38:24;100579.59;;;20.93;48.41
48926;BME280;39838;59.938;30.642;2023-08-24T11:40:51;100578.34;;;20.81;48.42
48926;BME280;39838;59.938;30.642;2023-08-24T11:43:24;100584.19;;;20.67;48.61
48926;BME280;39838;59.938;30.642;2023-08-24T11:45:53;100561.59;;;20.60;49.07
48926;BME280;39838;59.938;30.642;2023-08-24T11:48:24;100575.25;;;20.92;48.17
48926;BME280;39838;59.938;30.642;2023-08-24T11:50:55;100573.31;;;21.17;47.93
48926;BME280;39838;59.938;30.642;2023-08-24T11:53:23;100573.41;;;21.36;47.56
48926;BME280;39838;59.938;30.642;2023-08-24T11:55:52;100573.06;;;21.44;47.46
48926;BME280;39838;59.938;30.642;2023-08-24T11:58:20;100552.94;;;21.41;47.72
48926;BME280;39838;59.938;30.642;2023-08-24T12:00:47;100561.19;;;21.54;46.72
48926;BME280;39838;59.938;30.642;2023-08-24T12:03:16;100565.53;;;21.55;46.31
48926;BME280;39838;59.938;30.642;2023-08-24T12:05:43;100560.44;;;21.50;46.76
48926;BME280;39838;59.938;30.642;2023-08-24T12:08:11;100563.28;;;21.46;46.72
48926;BME280;39838;59.938;30.642;2023-08-24T12:10:43;100565.53;;;21.55;46.80
48926;BME280;39838;59.938;30.642;2023-08-24T12:13:12;100564.09;;;21.67;46.92
48926;BME280;39838;59.938;30.642;2023-08-24T12:15:40;100555.16;;;21.90;46.60
48926;BME280;39838;59.938;30.642;2023-08-24T12:18:10;100539.03;;;21.94;45.70
48926;BME280;39838;59.938;30.642;2023-08-24T12:20:37;100557.59;;;22.13;45.79
48926;BME280;39838;59.938;30.642;2023-08-24T12:23:06;100530.50;;;21.89;45.22
48926;BME280;39838;59.938;30.642;2023-08-24T12:25:36;100553.06;;;21.77;46.02
48926;BME280;39838;59.938;30.642;2023-08-24T12:28:13;100544.41;;;21.74;45.74
48926;BME280;39838;59.938;30.642;2023-08-24T12:30:45;100547.63;;;21.99;46.04
48926;BME280;39838;59.938;30.642;2023-08-24T12:33:22;100537.25;;;22.51;45.77
48926;BME280;39838;59.938;30.642;2023-08-24T12:35:50;100537.09;;;23.25;44.39
48926;BME280;39838;59.938;30.642;2023-08-24T12:38:17;100532.72;;;23.75;42.94
48926;BME280;39838;59.938;30.642;2023-08-24T12:40:44;100533.34;;;24.11;42.37
48926;BME280;39838;59.938;30.642;2023-08-24T12:43:13;100528.78;;;23.97;41.94
48926;BME280;39838;59.938;30.642;2023-08-24T12:45:41;100533.25;;;23.81;42.09
48926;BME280;39838;59.938;30.642;2023-08-24T12:48:08;100530.56;;;23.48;42.23
48926;BME280;39838;59.938;30.642;2023-08-24T12:50:37;100534.88;;;23.51;42.23